Maryland METAR Reports


Distance/Direction noted is from Ellicott City, MD as the crow flies

KCBE - Cumberland - 118 miles WNW
Updated: Tue, 09/02/2014 7:30 PM
Clear
Clear
 Wind from SSW
Wind: SSW 5 mph
Temperature: 81°F
Heat Index: 84°F
Dew Point: 68°F
Humidity: 66%
Barometer: 29.93 inHg
Clouds: Clear
Visibility: 10 miles
2014/09/02 23:30 KCBE 022330Z AUTO 21004KT 10SM CLR 27/20 A2993 RMK AO1
KHGR - Hagerstown - 57 miles NW
Updated: Tue, 09/02/2014 6:53 PM
Clear
Clear
 Wind from SSW
Wind: SSW 3 mph
Temperature: 77°F
Dew Point: 68°F
Humidity: 74%
Barometer: 29.89 inHg
Clouds: Clear
Visibility: 10 miles
2014/09/02 22:53 KHGR 022253Z 21003KT 10SM CLR 25/20 A2989 RMK AO2 LTG DSNT SE SLP125 T02500200
 
KFDK - Frederick - 34 miles NW
Updated: Tue, 09/02/2014 7:20 PM
Nearby thunderstorm, Mostly cloudy
Nearby thunderstorm, Mostly cloudy
 Wind from S
Wind: S 9 mph
Temperature: 73°F
Dew Point: 73°F
Humidity: 100%
Barometer: 29.92 inHg
Summary: Nearby Thunderstorm
Clouds: Mostly Cloudy
Visibility: 10 miles
Cloud Details: Mostly Cloudy 3700 ft
Mostly Cloudy 6000 ft
2014/09/02 23:20 KFDK 022320Z 18008KT 10SM VCTS BKN037 BKN060 23/23 A2992
KGAI - Gaithersburg - 26 miles SW
Updated: Tue, 09/02/2014 7:35 PM
Thunderstorm, Partly cloudy
Thunderstorm, Partly cloudy
 Wind from calm
Wind: Calm
Temperature: 72°F
Dew Point: 70°F
Humidity: 94%
Barometer: 29.94 inHg
Summary: Thunderstorm
Clouds: Partly Cloudy
Visibility: 4 miles
Cloud Details: Partly Cloudy 1500 ft
Partly Cloudy 3300 ft
Partly Cloudy 4600 ft
2014/09/02 23:35 KGAI 022335Z AUTO 00000KT 4SM TS SCT015 SCT033 SCT046 22/21 A2994 RMK AO1 LTG DSNT ALQDS P0032
 
KBWI - BWI Airport - 15 miles SE
Updated: Tue, 09/02/2014 7:15 PM
Light rain, Overcast
Light rain, Overcast
 Wind from E
Wind: E 5 mph
Temperature: 75°F
Dew Point: 70°F
Humidity: 83%
Barometer: 29.86 inHg
Summary: Light Rain
Clouds: Overcast
Visibility: 10 miles
Cloud Details: Partly Cloudy 3900 ft
Mostly Cloudy 8500 ft
Overcast 11000 ft
2014/09/02 23:15 KBWI 022315Z 08004KT 10SM -RA SCT039CB BKN085 OVC110 24/21 A2986 RMK AO2 TSE10 CB S MOV E P0000
KNAK - Annapolis - 32 miles SSE
Updated: Tue, 09/02/2014 6:54 PM

 Wind from N
Wind: N 7 mph
Temperature: 84°F
Heat Index: 90°F
Dew Point: 73°F
Humidity: 70%
Barometer: 29.85 inHg
Visibility: 10 miles
2014/09/02 22:54 KNAK 022254Z AUTO 35006KT 10SM 29/23 A2985 RMK AO2 SLP111 T02890233
 
KESN - Easton - 63 miles SE
Updated: Tue, 09/02/2014 6:53 PM
Mostly Cloudy
Mostly Cloudy
 Wind from calm
Wind: Calm
Temperature: 91°F
Heat Index: 98°F
Dew Point: 72°F
Humidity: 52%
Barometer: 29.89 inHg
Clouds: Mostly Cloudy
Visibility: 10 miles
Cloud Details: Mostly Cloudy 8000 ft
Mostly Cloudy 10000 ft
2014/09/02 22:53 KESN 022253Z 00000KT 10SM BKN080 BKN100 33/22 A2989
KSBY - Salisbury - 112 miles SE
Updated: Tue, 09/02/2014 6:54 PM
Clear
Clear
 Wind from S
Wind: S 5 mph
Temperature: 90°F
Heat Index: 97°F
Dew Point: 72°F
Humidity: 55%
Barometer: 29.87 inHg
Clouds: Clear
Visibility: 10 miles
2014/09/02 22:54 KSBY 022254Z 19004KT 10SM CLR 32/22 A2987 RMK AO2 SLP116 T03170217